Bookmark and Share
Track history (hours):
 

Bude

Last reported at 2014-Apr-16 04:33 UTC. Time now 2014-Apr-16 05:30 UTC.
Position N 43°26' E 004°53'.

Length 119 m; draft 4.5 m.

Type: Cargo ship. MMSI: 538004506.

NotesDate/timePositionNaut miles runAvg speedWind from/ knotsBaromVisibWave heightAir tempDewpointWater temp
2014-Apr-16 04:33N 43°26' E 004°53'0 0.0
2014-Apr-16 03:33N 43°26' E 004°53'0 0.0
2014-Apr-16 02:33N 43°26' E 004°53'0 0.0
2014-Apr-16 01:33N 43°26' E 004°53'0 0.0
2014-Apr-16 00:33N 43°26' E 004°53'0 0.0
2014-Apr-15 23:33N 43°26' E 004°53'0 0.0
2014-Apr-15 22:24N 43°26' E 004°53'0 0.0
2014-Apr-15 21:33N 43°26' E 004°53'0 0.0
2014-Apr-15 20:33N 43°26' E 004°53'0 0.0
2014-Apr-15 19:33N 43°26' E 004°53'1 0.9
2014-Apr-15 18:33N 43°25' E 004°53'3 2.9
2014-Apr-15 17:32N 43°24' E 004°57'0 0.0
2014-Apr-15 16:32N 43°24' E 004°57'5 4.9
2014-Apr-15 15:33N 43°19' E 004°59'9 9.0
2014-Apr-15 14:33N 43°11' E 005°03'3 1.5
2014-Apr-15 12:34N 43°14' E 005°02'8 8.0
2014-Apr-15 11:33N 43°10' E 004°52'10 9.3
2014-Apr-15 10:31N 43°10' E 004°38'9 9.6
2014-Apr-15 09:31N 43°10' E 004°25'6 0.3
2014-Apr-14 15:31N 43°11' E 004°17'0 0.0
2014-Apr-13 21:24N 43°10' E 004°17'0 0.0
2014-Apr-13 20:33N 43°10' E 004°17'0 0.0
2014-Apr-13 18:13N 43°11' E 004°17'0 0.0
2014-Apr-13 17:33N 43°11' E 004°17'0 0.0
2014-Apr-13 16:05N 43°11' E 004°17'0 0.0
2014-Apr-13 15:21N 43°11' E 004°17'0 0.0
2014-Apr-13 14:26N 43°11' E 004°17'0 0.0
2014-Apr-13 12:33N 43°10' E 004°17'0 0.0
2014-Apr-13 11:29N 43°10' E 004°17'0 0.0
2014-Apr-13 09:15N 43°10' E 004°17'0 0.0
2014-Apr-13 01:27N 43°10' E 004°17'0 0.0
2014-Apr-12 23:32N 43°10' E 004°17'0 0.0
2014-Apr-12 21:18N 43°11' E 004°17'0 0.0
2014-Apr-12 20:33N 43°11' E 004°17'0 0.0
2014-Apr-12 17:12N 43°11' E 004°17'0 0.0
2014-Apr-12 16:15N 43°11' E 004°17'0 0.0
2014-Apr-12 14:11N 43°11' E 004°17'0 0.0
2014-Apr-12 10:20N 43°10' E 004°17'11 5.5
2014-Apr-12 08:24N 43°15' E 004°03'1110.8
2014-Apr-12 07:21N 43°21' E 003°51'6 7.8
2014-Apr-12 06:33N 43°24' E 003°43'0 0.0
2014-Apr-11 20:15N 43°24' E 003°42'0 0.0
2014-Apr-11 19:32N 43°24' E 003°42'0 0.0
2014-Apr-11 16:31N 43°24' E 003°43'0 0.0
2014-Apr-11 01:13N 43°24' E 003°42'0 0.0
2014-Apr-10 21:32N 43°24' E 003°42'0 0.0
2014-Apr-10 20:23N 43°24' E 003°42'0 0.0
2014-Apr-10 19:13N 43°24' E 003°42'0 0.0
2014-Apr-10 07:04N 43°24' E 003°42'0 0.3
2014-Apr-10 06:30N 43°24' E 003°43'6969.4
2014-Apr-10 05:31N 42°15' E 003°50'6062.8
2014-Apr-10 04:33N 43°16' E 003°52'22 7.2
2014-Apr-10 01:33N 42°56' E 004°05'9 9.6
2014-Apr-10 00:33N 42°48' E 004°10'10 9.6
2014-Apr-09 23:33N 42°39' E 004°15'19 9.6
2014-Apr-09 21:33N 42°21' E 004°26'10 9.7
2014-Apr-09 20:33N 42°13' E 004°31'9 9.5
2014-Apr-09 19:34N 42°04' E 004°36'10 9.4
2014-Apr-09 18:28N 41°54' E 004°41'910.1
2014-Apr-09 17:33N 41°46' E 004°46'9 9.4
2014-Apr-09 16:32N 41°38' E 004°53'9 9.1
2014-Apr-09 15:31N 41°31' E 005°01'9 8.9
2014-Apr-09 14:33N 41°24' E 005°09'216 8.0
2014-Apr-08 11:33N 38°47' E 008°22'19 9.2
2014-Apr-08 09:32N 38°33' E 008°37'9 9.4
2014-Apr-08 08:33N 38°29' E 008°48'11 9.3
2014-Apr-08 07:19N 38°24' E 009°01'7 9.3
2014-Apr-08 06:32N 38°21' E 009°09'10 8.9
2014-Apr-08 05:27N 38°16' E 009°20'8 9.0
2014-Apr-08 04:33N 38°13' E 009°29'9 8.6
2014-Apr-08 03:33N 38°09' E 009°39'8 8.2
2014-Apr-08 02:33N 38°04' E 009°48'8 8.1
2014-Apr-08 01:32N 38°00' E 009°57'8 8.0
2014-Apr-08 00:33N 37°57' E 010°06'9 8.6
2014-Apr-07 23:33N 37°53' E 010°16'9 8.8
2014-Apr-07 22:33N 37°49' E 010°26'9 8.8
2014-Apr-07 21:33N 37°45' E 010°36'9 9.2
2014-Apr-07 20:31N 37°41' E 010°46'28 8.7
2014-Apr-07 17:21N 37°27' E 011°16'63 8.7
2014-Apr-07 10:04N 36°56' E 012°26'  

Dump ship's entire track history

sailing weather and tide predictions

Bude — V7XL2 — position and weather